Seattle, Washington
Traffic Map
Current Weather Conditions
Seattle, Washington
Clear
Clear
46°
Feels Like: 44°
Wind Chill: 44° Ceiling: Unl
Heat Index: 46° Visibility: 10mi
Dew Point: 32° Wind: 5mph
Humidity: 58% Direction: 30° (NNE)
Pressure: 30.05in Gusts: 0mph
Raw Report DataKBFI 281153Z 03004KT 10SM CLR 08/00 A3005 RMK AO2 SLP174 70014 T00780000 10100 20078 51025
Traffic Incident Summary
Active as of:
Severity:
Category:
InformationThere was an issue retrieving the traffic information for this location. Please try a different location or try again shortly.
Advertisements
Track Severe Weather on mobile